Airfield :
LOGIN :

Register | Disclaimer

   EN    FR    IT 

 










Legend :    VFR   Marginal VFR   IFR   Intensive IFR   Very Intensive IFR
Visi :
Ceiling :
>= 8 km
>= 3000ft
5 to 8 km
1000 to 3000 ft
1500m to 5 km
500 to 1000 ft
800 to 1500m
200 to 500 ft
< 800m
< 200 ft
Symbols :   Thunderstorms  Fog  Heavy snow  Heavy precipitations  Wind > 20 kt
SIGMETs :     Misc.  Thunderstorms  Icing  Turbulence  Mountain Waves  Volcanic Ashes







- Airport Elevation : 1367 ft
- IATA code : FDH


EDNY - Friedrichshafen

CURRENT METAR :
  • 250620Z 04005KT 9999 BKN052 BKN065 17/12 Q1022

EXPIRED METARs :
  • 250550Z 03005KT 9999 BKN054 15/12 Q1022
  • 250520Z 04005KT 9999 BKN051 BKN070 14/12 Q1022
  • 250450Z 04004KT 9999 SCT051 13/12 Q1022
  • 250420Z 05004KT CAVOK 13/11 Q1022
  • 250350Z 05005KT CAVOK 13/11 Q1022

TAF TAF EDNY
Valid from the 25 at 06:00 until the 26 at 06:00 UTC


250500Z 2506/2606 03006KT 9999 SCT030 SCT060
TEMPO 2509/2514 23004KT
No reported NOTAMs for that airfield.



MET'MAP, your aeronautical weather chart ! - Copyright ORBIFLY December 2007 - Disclaimer

ORBIFLY MET'MAP TEAM :

Programming & Development : Alexandra Zaïnal
Concept & Development : Baudouin d'Aumeries
Co-Development & Prog : Marc-Olivier Méhu
Technical & hardware support : Manuel Goepfert

Contact : metmap@orbifly.com




SOURCES & CREDITS :

   NOAA